KDUG/DUG METAR and TAF weather

Enter ICAO airport designator
Station Type Date Time Source
KDUG METAR 2020/04/15 13:56 UTC NOAA

KDUG 151356Z AUTO RMK AO2 SLPNO PWINO TSNO PNO $


Station Type Date Time Source
KDUG Decoded METAR 2020/04/15 13:56 UTC NOAA

BISBEE DOUGLAS INTERNATIONAL AIRPORT , AZ, United States (KDUG) 31-28N 109-36W
Apr 15, 2020 - 09:56 AM EDT / 2020.04.15 1356 UTC
ob: KDUG 151356Z AUTO RMK AO2 SLPNO PWINO TSNO PNO
cycle: 14

Station Type Date Time Source
KDUG TAF 2020/04/15 12:36 UTC NOAA

TAF KDUG 151134Z 1512/1612 04007KT P6SM FEW250
FM151500 VRB04KT P6SM SKC
FM151900 28011G18KT P6SM SKC
FM160100 32008KT P6SM SKC
FM160500 35005KT P6SM SKC

Example: see airport list